Hythe, Canada
Current Conditions -  °F | °C
As of 3:00 AM on Thursday 23 Oct 2014 (Local Time) from CYQU Reporting Station
Broken Clouds Broken Clouds  
Wind Chill: 32°   Ceiling: 17000
Heat Index: 32°   Visibility: 25mi
Dew Point: 30°   Wind: 3mph
Humidity: 93%   Direction: 360°N
Pressure: 29.47"   Gusts: NA
Location:  55.32°N, 119.57°W
Report Text: CYQU 230900Z 36003KT 25SM BKN170 00/M01 A2947 RMK AC6 SLP001
Loading
Personal Weather Stations






























Interactive Weather Map
Tropical Storm Tracking
New forecast layout! Learn more

10-Day Weather Forecast

Advertisements
Track Severe Weather on mobile